GOOY/DKR METAR and TAF weather

Enter ICAO airport designator
Station Type Date Time Source
GOOY METAR 2018/01/21 12:00 UTC NOAA

GOOY 211200Z 02012KT 4000 DU NSC 21/13 Q1014


Station Type Date Time Source
GOOY Decoded METAR 2018/01/21 12:00 UTC NOAA

Dakar / Yoff, Senegal (GOOY) 14-44N 017-30W 24M
Jan 21, 2018 - 07:00 AM EST / 2018.01.21 1200 UTC
Wind: from the NNE (020 degrees) at 14 MPH (12 KT):0
Visibility: 2 mile(s):0
Weather: widespread dust
Temperature: 69 F (21 C)
Dew Point: 55 F (13 C)
Relative Humidity: 60%
Pressure (altimeter): 29.94 in. Hg (1014 hPa)
ob: GOOY 211200Z 02012KT 4000 DU NSC 21/13 Q1014
cycle: 12

Station Type Date Time Source
GOOY TAF 2018/01/21 12:30 UTC NOAA

TAF GOOY 211130Z 2112/2218 04012KT 7000 NSC


Example: see airport list